sensor_id;sensor_type;location;lat;lon;timestamp;temperature;humidity
58413;DHT22;44209;52.952;6.790;2023-03-25T00:01:06;9.90;99.90
58413;DHT22;44209;52.952;6.790;2023-03-25T00:03:36;9.80;99.90
58413;DHT22;44209;52.952;6.790;2023-03-25T00:06:04;9.80;99.90
58413;DHT22;44209;52.952;6.790;2023-03-25T00:08:31;9.80;99.90
58413;DHT22;44209;52.952;6.790;2023-03-25T00:10:59;9.90;99.90
58413;DHT22;44209;52.952;6.790;2023-03-25T00:13:25;9.90;99.90
58413;DHT22;44209;52.952;6.790;2023-03-25T00:15:52;9.90;99.90
58413;DHT22;44209;52.952;6.790;2023-03-25T00:18:24;9.90;99.90
58413;DHT22;44209;52.952;6.790;2023-03-25T00:20:51;9.90;99.90
58413;DHT22;44209;52.952;6.790;2023-03-25T00:23:21;9.90;99.90
58413;DHT22;44209;52.952;6.790;2023-03-25T00:25:48;9.90;99.90
58413;DHT22;44209;52.952;6.790;2023-03-25T00:28:15;9.90;99.90
58413;DHT22;44209;52.952;6.790;2023-03-25T00:30:42;9.90;99.90
58413;DHT22;44209;52.952;6.790;2023-03-25T00:33:09;9.90;99.90
58413;DHT22;44209;52.952;6.790;2023-03-25T00:35:41;9.90;99.90
58413;DHT22;44209;52.952;6.790;2023-03-25T00:38:10;9.90;99.90
58413;DHT22;44209;52.952;6.790;2023-03-25T00:40:37;9.90;99.90
58413;DHT22;44209;52.952;6.790;2023-03-25T00:43:04;9.90;99.90
58413;DHT22;44209;52.952;6.790;2023-03-25T00:45:30;9.90;99.90
58413;DHT22;44209;52.952;6.790;2023-03-25T00:47:56;10.00;99.90
58413;DHT22;44209;52.952;6.790;2023-03-25T00:50:22;9.90;99.90
58413;DHT22;44209;52.952;6.790;2023-03-25T00:52:49;10.00;99.90
58413;DHT22;44209;52.952;6.790;2023-03-25T00:55:19;10.00;99.90
58413;DHT22;44209;52.952;6.790;2023-03-25T00:57:45;10.00;99.90
58413;DHT22;44209;52.952;6.790;2023-03-25T01:00:13;10.00;99.90
58413;DHT22;44209;52.952;6.790;2023-03-25T01:02:42;9.90;99.90
58413;DHT22;44209;52.952;6.790;2023-03-25T01:05:08;9.80;99.90
58413;DHT22;44209;52.952;6.790;2023-03-25T01:07:39;9.80;99.90
58413;DHT22;44209;52.952;6.790;2023-03-25T01:10:07;9.70;99.90
58413;DHT22;44209;52.952;6.790;2023-03-25T01:12:34;9.60;99.90
58413;DHT22;44209;52.952;6.790;2023-03-25T01:15:00;9.50;99.90
58413;DHT22;44209;52.952;6.790;2023-03-25T01:17:26;9.50;99.90
58413;DHT22;44209;52.952;6.790;2023-03-25T01:19:52;9.40;99.90
58413;DHT22;44209;52.952;6.790;2023-03-25T01:22:18;9.40;99.90
58413;DHT22;44209;52.952;6.790;2023-03-25T01:24:56;9.30;99.90
58413;DHT22;44209;52.952;6.790;2023-03-25T01:27:22;9.30;99.90
58413;DHT22;44209;52.952;6.790;2023-03-25T01:29:50;9.30;99.90
58413;DHT22;44209;52.952;6.790;2023-03-25T01:32:22;9.20;99.90
58413;DHT22;44209;52.952;6.790;2023-03-25T01:34:50;9.20;99.90
58413;DHT22;44209;52.952;6.790;2023-03-25T01:37:18;9.10;99.90
58413;DHT22;44209;52.952;6.790;2023-03-25T01:39:44;9.10;99.90
58413;DHT22;44209;52.952;6.790;2023-03-25T01:42:11;9.10;99.90
58413;DHT22;44209;52.952;6.790;2023-03-25T01:47:03;9.00;99.90
58413;DHT22;44209;52.952;6.790;2023-03-25T01:49:40;9.00;99.90
58413;DHT22;44209;52.952;6.790;2023-03-25T01:54:34;9.00;99.90
58413;DHT22;44209;52.952;6.790;2023-03-25T01:57:04;9.00;99.90
58413;DHT22;44209;52.952;6.790;2023-03-25T01:59:31;9.00;99.90
58413;DHT22;44209;52.952;6.790;2023-03-25T02:02:08;9.00;99.90
58413;DHT22;44209;52.952;6.790;2023-03-25T02:04:58;9.00;99.90
58413;DHT22;44209;52.952;6.790;2023-03-25T02:07:26;9.00;99.90
58413;DHT22;44209;52.952;6.790;2023-03-25T02:09:59;9.00;99.90
58413;DHT22;44209;52.952;6.790;2023-03-25T02:12:30;8.90;99.90
58413;DHT22;44209;52.952;6.790;2023-03-25T02:14:57;8.90;99.90
58413;DHT22;44209;52.952;6.790;2023-03-25T02:18:13;9.00;99.90
58413;DHT22;44209;52.952;6.790;2023-03-25T02:29:21;8.90;99.90
58413;DHT22;44209;52.952;6.790;2023-03-25T02:35:14;8.80;99.90
58413;DHT22;44209;52.952;6.790;2023-03-25T02:41:12;8.80;99.90
58413;DHT22;44209;52.952;6.790;2023-03-25T02:43:50;8.80;99.90
58413;DHT22;44209;52.952;6.790;2023-03-25T02:46:30;8.80;99.90
58413;DHT22;44209;52.952;6.790;2023-03-25T02:49:12;8.80;99.90
58413;DHT22;44209;52.952;6.790;2023-03-25T02:52:05;8.80;99.90
58413;DHT22;44209;52.952;6.790;2023-03-25T02:54:33;8.70;99.90
58413;DHT22;44209;52.952;6.790;2023-03-25T02:57:07;8.80;99.90
58413;DHT22;44209;52.952;6.790;2023-03-25T02:59:34;8.80;99.90
58413;DHT22;44209;52.952;6.790;2023-03-25T03:02:08;8.80;99.90
58413;DHT22;44209;52.952;6.790;2023-03-25T03:04:53;8.70;99.90
58413;DHT22;44209;52.952;6.790;2023-03-25T03:07:30;8.80;99.90
58413;DHT22;44209;52.952;6.790;2023-03-25T03:20:54;8.60;99.90
58413;DHT22;44209;52.952;6.790;2023-03-25T03:23:35;8.60;99.90
58413;DHT22;44209;52.952;6.790;2023-03-25T03:28:54;8.60;99.90
58413;DHT22;44209;52.952;6.790;2023-03-25T03:31:51;8.60;99.90
58413;DHT22;44209;52.952;6.790;2023-03-25T03:34:35;8.60;99.90
58413;DHT22;44209;52.952;6.790;2023-03-25T03:37:08;8.60;99.90
58413;DHT22;44209;52.952;6.790;2023-03-25T03:39:36;8.60;99.90
58413;DHT22;44209;52.952;6.790;2023-03-25T03:42:13;8.60;99.90
58413;DHT22;44209;52.952;6.790;2023-03-25T03:44:43;8.60;99.90
58413;DHT22;44209;52.952;6.790;2023-03-25T03:47:15;8.60;99.90
58413;DHT22;44209;52.952;6.790;2023-03-25T03:50:15;8.60;99.90
58413;DHT22;44209;52.952;6.790;2023-03-25T03:52:49;8.60;99.90
58413;DHT22;44209;52.952;6.790;2023-03-25T03:55:21;8.60;99.90
58413;DHT22;44209;52.952;6.790;2023-03-25T03:58:10;8.60;99.90
58413;DHT22;44209;52.952;6.790;2023-03-25T04:00:45;8.60;99.90
58413;DHT22;44209;52.952;6.790;2023-03-25T04:03:18;8.60;99.90
58413;DHT22;44209;52.952;6.790;2023-03-25T04:06:02;8.60;99.90
58413;DHT22;44209;52.952;6.790;2023-03-25T04:08:43;8.60;99.90
58413;DHT22;44209;52.952;6.790;2023-03-25T04:11:20;8.60;99.90
58413;DHT22;44209;52.952;6.790;2023-03-25T04:13:52;8.60;99.90
58413;DHT22;44209;52.952;6.790;2023-03-25T04:16:21;8.60;99.90
58413;DHT22;44209;52.952;6.790;2023-03-25T04:18:53;8.60;99.90
58413;DHT22;44209;52.952;6.790;2023-03-25T04:21:24;8.60;99.90
58413;DHT22;44209;52.952;6.790;2023-03-25T04:23:50;8.50;99.90
58413;DHT22;44209;52.952;6.790;2023-03-25T04:26:17;8.60;99.90
58413;DHT22;44209;52.952;6.790;2023-03-25T04:28:44;8.60;99.90
58413;DHT22;44209;52.952;6.790;2023-03-25T04:31:14;8.60;99.90
58413;DHT22;44209;52.952;6.790;2023-03-25T04:33:42;8.60;99.90
58413;DHT22;44209;52.952;6.790;2023-03-25T04:36:13;8.60;99.90
58413;DHT22;44209;52.952;6.790;2023-03-25T04:38:40;8.60;99.90
58413;DHT22;44209;52.952;6.790;2023-03-25T04:41:14;8.60;99.90
58413;DHT22;44209;52.952;6.790;2023-03-25T04:43:40;8.60;99.90
58413;DHT22;44209;52.952;6.790;2023-03-25T04:46:14;8.60;99.90
58413;DHT22;44209;52.952;6.790;2023-03-25T04:48:42;8.50;99.90
58413;DHT22;44209;52.952;6.790;2023-03-25T04:51:11;8.50;99.90
58413;DHT22;44209;52.952;6.790;2023-03-25T04:53:38;8.50;99.90
58413;DHT22;44209;52.952;6.790;2023-03-25T04:56:06;8.50;99.90
58413;DHT22;44209;52.952;6.790;2023-03-25T04:58:44;8.50;99.90
58413;DHT22;44209;52.952;6.790;2023-03-25T05:01:25;8.50;99.90
58413;DHT22;44209;52.952;6.790;2023-03-25T05:03:59;8.50;99.90
58413;DHT22;44209;52.952;6.790;2023-03-25T05:06:35;8.50;99.90
58413;DHT22;44209;52.952;6.790;2023-03-25T05:09:05;8.50;99.90
58413;DHT22;44209;52.952;6.790;2023-03-25T05:11:34;8.50;99.90
58413;DHT22;44209;52.952;6.790;2023-03-25T05:14:02;8.50;99.90
58413;DHT22;44209;52.952;6.790;2023-03-25T05:16:28;8.50;99.90
58413;DHT22;44209;52.952;6.790;2023-03-25T05:18:54;8.50;99.90
58413;DHT22;44209;52.952;6.790;2023-03-25T05:21:20;8.40;99.90
58413;DHT22;44209;52.952;6.790;2023-03-25T05:23:46;8.50;99.90
58413;DHT22;44209;52.952;6.790;2023-03-25T05:26:12;8.50;99.90
58413;DHT22;44209;52.952;6.790;2023-03-25T05:28:44;8.50;99.90
58413;DHT22;44209;52.952;6.790;2023-03-25T05:31:13;8.50;99.90
58413;DHT22;44209;52.952;6.790;2023-03-25T05:33:40;8.50;99.90
58413;DHT22;44209;52.952;6.790;2023-03-25T05:36:12;8.40;99.90
58413;DHT22;44209;52.952;6.790;2023-03-25T05:38:39;8.50;99.90
58413;DHT22;44209;52.952;6.790;2023-03-25T05:41:11;8.40;99.90
58413;DHT22;44209;52.952;6.790;2023-03-25T05:43:41;8.40;99.90
58413;DHT22;44209;52.952;6.790;2023-03-25T05:46:12;8.40;99.90
58413;DHT22;44209;52.952;6.790;2023-03-25T05:48:40;8.30;99.90
58413;DHT22;44209;52.952;6.790;2023-03-25T05:51:14;8.30;99.90
58413;DHT22;44209;52.952;6.790;2023-03-25T05:53:45;8.40;99.90
58413;DHT22;44209;52.952;6.790;2023-03-25T05:56:20;8.40;99.90
58413;DHT22;44209;52.952;6.790;2023-03-25T05:58:48;8.40;99.90
58413;DHT22;44209;52.952;6.790;2023-03-25T06:01:15;8.40;99.90
58413;DHT22;44209;52.952;6.790;2023-03-25T06:03:43;8.50;99.90
58413;DHT22;44209;52.952;6.790;2023-03-25T06:06:23;8.40;99.90
58413;DHT22;44209;52.952;6.790;2023-03-25T06:08:53;8.40;99.90
58413;DHT22;44209;52.952;6.790;2023-03-25T06:11:20;8.40;99.90
58413;DHT22;44209;52.952;6.790;2023-03-25T06:13:47;8.40;99.90
58413;DHT22;44209;52.952;6.790;2023-03-25T06:16:22;8.40;99.90
58413;DHT22;44209;52.952;6.790;2023-03-25T06:18:52;8.50;99.90
58413;DHT22;44209;52.952;6.790;2023-03-25T06:21:23;8.50;99.90
58413;DHT22;44209;52.952;6.790;2023-03-25T06:23:53;8.40;99.90
58413;DHT22;44209;52.952;6.790;2023-03-25T06:26:20;8.40;99.90
58413;DHT22;44209;52.952;6.790;2023-03-25T06:28:47;8.50;99.90
58413;DHT22;44209;52.952;6.790;2023-03-25T06:31:24;8.50;99.90
58413;DHT22;44209;52.952;6.790;2023-03-25T06:33:55;8.50;99.90
58413;DHT22;44209;52.952;6.790;2023-03-25T06:36:21;8.50;99.90
58413;DHT22;44209;52.952;6.790;2023-03-25T06:38:50;8.50;99.90
58413;DHT22;44209;52.952;6.790;2023-03-25T06:41:31;8.50;99.90
58413;DHT22;44209;52.952;6.790;2023-03-25T06:44:04;8.40;99.90
58413;DHT22;44209;52.952;6.790;2023-03-25T06:46:30;8.40;99.90
58413;DHT22;44209;52.952;6.790;2023-03-25T06:49:02;8.40;99.90
58413;DHT22;44209;52.952;6.790;2023-03-25T06:51:28;8.40;99.90
58413;DHT22;44209;52.952;6.790;2023-03-25T06:53:54;8.40;99.90
58413;DHT22;44209;52.952;6.790;2023-03-25T06:56:22;8.40;99.90
58413;DHT22;44209;52.952;6.790;2023-03-25T06:58:52;8.40;99.90
58413;DHT22;44209;52.952;6.790;2023-03-25T07:01:18;8.50;99.90
58413;DHT22;44209;52.952;6.790;2023-03-25T07:03:56;8.50;99.90
58413;DHT22;44209;52.952;6.790;2023-03-25T07:06:28;8.60;99.90
58413;DHT22;44209;52.952;6.790;2023-03-25T07:08:55;8.60;99.90
58413;DHT22;44209;52.952;6.790;2023-03-25T07:11:26;8.70;99.90
58413;DHT22;44209;52.952;6.790;2023-03-25T07:13:59;8.70;99.90
58413;DHT22;44209;52.952;6.790;2023-03-25T07:16:32;8.80;99.90
58413;DHT22;44209;52.952;6.790;2023-03-25T07:19:25;8.80;99.90
58413;DHT22;44209;52.952;6.790;2023-03-25T07:21:53;8.90;99.90
58413;DHT22;44209;52.952;6.790;2023-03-25T07:24:19;8.90;99.90
58413;DHT22;44209;52.952;6.790;2023-03-25T07:26:45;9.00;99.90
58413;DHT22;44209;52.952;6.790;2023-03-25T07:29:11;9.00;99.90
58413;DHT22;44209;52.952;6.790;2023-03-25T07:31:39;9.00;99.90
58413;DHT22;44209;52.952;6.790;2023-03-25T07:34:06;9.10;99.90
58413;DHT22;44209;52.952;6.790;2023-03-25T07:36:36;9.10;99.90
58413;DHT22;44209;52.952;6.790;2023-03-25T07:39:05;9.20;99.90
58413;DHT22;44209;52.952;6.790;2023-03-25T07:41:35;9.30;99.90
58413;DHT22;44209;52.952;6.790;2023-03-25T07:44:01;9.40;99.90
58413;DHT22;44209;52.952;6.790;2023-03-25T07:46:27;9.40;99.90
58413;DHT22;44209;52.952;6.790;2023-03-25T07:48:52;9.40;99.90
58413;DHT22;44209;52.952;6.790;2023-03-25T07:51:18;9.40;99.90
58413;DHT22;44209;52.952;6.790;2023-03-25T07:53:44;9.30;99.90
58413;DHT22;44209;52.952;6.790;2023-03-25T07:56:11;9.20;99.90
58413;DHT22;44209;52.952;6.790;2023-03-25T07:58:37;9.10;99.90
58413;DHT22;44209;52.952;6.790;2023-03-25T08:01:03;9.10;99.90
58413;DHT22;44209;52.952;6.790;2023-03-25T08:03:30;9.00;99.90
58413;DHT22;44209;52.952;6.790;2023-03-25T08:06:02;8.90;99.90
58413;DHT22;44209;52.952;6.790;2023-03-25T08:08:28;8.90;99.90
58413;DHT22;44209;52.952;6.790;2023-03-25T08:10:57;8.80;99.90
58413;DHT22;44209;52.952;6.790;2023-03-25T08:13:23;8.90;99.90
58413;DHT22;44209;52.952;6.790;2023-03-25T08:15:49;8.90;99.90
58413;DHT22;44209;52.952;6.790;2023-03-25T08:18:18;8.90;99.90
58413;DHT22;44209;52.952;6.790;2023-03-25T08:20:44;9.00;99.90
58413;DHT22;44209;52.952;6.790;2023-03-25T08:23:10;9.00;99.90
58413;DHT22;44209;52.952;6.790;2023-03-25T08:25:40;9.00;99.90
58413;DHT22;44209;52.952;6.790;2023-03-25T08:28:07;9.00;99.90
58413;DHT22;44209;52.952;6.790;2023-03-25T08:30:33;8.90;99.90
58413;DHT22;44209;52.952;6.790;2023-03-25T08:33:07;8.90;99.90
58413;DHT22;44209;52.952;6.790;2023-03-25T08:35:36;8.90;99.90
58413;DHT22;44209;52.952;6.790;2023-03-25T08:38:04;8.90;99.90
58413;DHT22;44209;52.952;6.790;2023-03-25T08:40:35;8.90;99.90
58413;DHT22;44209;52.952;6.790;2023-03-25T08:43:03;8.80;99.90
58413;DHT22;44209;52.952;6.790;2023-03-25T08:45:30;8.90;99.90
58413;DHT22;44209;52.952;6.790;2023-03-25T08:48:00;9.00;99.90
58413;DHT22;44209;52.952;6.790;2023-03-25T08:50:27;9.20;99.90
58413;DHT22;44209;52.952;6.790;2023-03-25T08:52:53;9.30;99.90
58413;DHT22;44209;52.952;6.790;2023-03-25T08:55:25;9.50;99.90
58413;DHT22;44209;52.952;6.790;2023-03-25T08:57:51;9.60;99.90
58413;DHT22;44209;52.952;6.790;2023-03-25T09:00:18;9.60;99.90
58413;DHT22;44209;52.952;6.790;2023-03-25T09:02:48;9.60;99.90
58413;DHT22;44209;52.952;6.790;2023-03-25T09:05:14;9.50;99.90
58413;DHT22;44209;52.952;6.790;2023-03-25T09:07:41;9.50;99.90
58413;DHT22;44209;52.952;6.790;2023-03-25T09:10:08;9.50;99.90
58413;DHT22;44209;52.952;6.790;2023-03-25T09:12:34;9.50;99.90
58413;DHT22;44209;52.952;6.790;2023-03-25T09:15:00;9.40;99.90
58413;DHT22;44209;52.952;6.790;2023-03-25T09:17:26;9.40;99.90
58413;DHT22;44209;52.952;6.790;2023-03-25T09:19:54;9.40;99.90
58413;DHT22;44209;52.952;6.790;2023-03-25T09:22:19;9.30;99.90
58413;DHT22;44209;52.952;6.790;2023-03-25T09:24:45;9.40;99.90
58413;DHT22;44209;52.952;6.790;2023-03-25T09:27:14;9.50;99.90
58413;DHT22;44209;52.952;6.790;2023-03-25T09:29:40;9.60;99.90
58413;DHT22;44209;52.952;6.790;2023-03-25T09:32:05;9.60;99.90
58413;DHT22;44209;52.952;6.790;2023-03-25T09:34:31;9.60;99.90
58413;DHT22;44209;52.952;6.790;2023-03-25T09:36:57;9.70;99.90
58413;DHT22;44209;52.952;6.790;2023-03-25T09:39:23;9.80;99.90
58413;DHT22;44209;52.952;6.790;2023-03-25T09:47:32;10.60;99.90
58413;DHT22;44209;52.952;6.790;2023-03-25T09:50:05;10.70;99.90
58413;DHT22;44209;52.952;6.790;2023-03-25T09:55:20;10.50;99.90
58413;DHT22;44209;52.952;6.790;2023-03-25T09:57:53;10.30;99.90
58413;DHT22;44209;52.952;6.790;2023-03-25T10:00:24;10.20;99.90
58413;DHT22;44209;52.952;6.790;2023-03-25T10:03:02;10.00;99.90
58413;DHT22;44209;52.952;6.790;2023-03-25T10:05:47;10.00;99.90
58413;DHT22;44209;52.952;6.790;2023-03-25T10:11:06;9.80;99.90
58413;DHT22;44209;52.952;6.790;2023-03-25T10:30:15;10.10;99.90
58413;DHT22;44209;52.952;6.790;2023-03-25T10:32:59;10.20;99.90
58413;DHT22;44209;52.952;6.790;2023-03-25T10:35:29;10.30;99.90
58413;DHT22;44209;52.952;6.790;2023-03-25T10:38:21;10.30;99.90
58413;DHT22;44209;52.952;6.790;2023-03-25T10:41:02;10.40;99.90
58413;DHT22;44209;52.952;6.790;2023-03-25T10:43:35;10.30;99.90
58413;DHT22;44209;52.952;6.790;2023-03-25T10:46:43;10.30;99.90
58413;DHT22;44209;52.952;6.790;2023-03-25T10:49:20;10.20;99.90
58413;DHT22;44209;52.952;6.790;2023-03-25T10:51:49;10.10;99.90
58413;DHT22;44209;52.952;6.790;2023-03-25T10:54:18;10.10;99.90
58413;DHT22;44209;52.952;6.790;2023-03-25T10:56:49;10.00;99.90
58413;DHT22;44209;52.952;6.790;2023-03-25T11:01:56;10.30;99.90
58413;DHT22;44209;52.952;6.790;2023-03-25T11:04:30;10.40;99.90
58413;DHT22;44209;52.952;6.790;2023-03-25T11:06:58;10.50;99.90
58413;DHT22;44209;52.952;6.790;2023-03-25T11:09:30;10.50;99.90
58413;DHT22;44209;52.952;6.790;2023-03-25T11:12:00;10.60;99.90
58413;DHT22;44209;52.952;6.790;2023-03-25T11:14:28;10.60;99.90
58413;DHT22;44209;52.952;6.790;2023-03-25T11:17:14;10.70;99.90
58413;DHT22;44209;52.952;6.790;2023-03-25T11:19:57;10.70;99.90
58413;DHT22;44209;52.952;6.790;2023-03-25T11:22:30;10.70;99.90
58413;DHT22;44209;52.952;6.790;2023-03-25T11:25:18;10.70;99.90
58413;DHT22;44209;52.952;6.790;2023-03-25T11:27:51;10.60;99.90
58413;DHT22;44209;52.952;6.790;2023-03-25T11:30:19;10.50;99.90
58413;DHT22;44209;52.952;6.790;2023-03-25T11:32:58;10.60;99.90
58413;DHT22;44209;52.952;6.790;2023-03-25T11:35:30;10.80;99.90
58413;DHT22;44209;52.952;6.790;2023-03-25T11:37:58;10.90;99.90
58413;DHT22;44209;52.952;6.790;2023-03-25T11:40:26;11.10;99.90
58413;DHT22;44209;52.952;6.790;2023-03-25T11:42:57;11.30;99.90
58413;DHT22;44209;52.952;6.790;2023-03-25T11:45:35;11.60;99.90
58413;DHT22;44209;52.952;6.790;2023-03-25T11:48:21;11.60;99.90
58413;DHT22;44209;52.952;6.790;2023-03-25T11:50:55;11.70;99.90
58413;DHT22;44209;52.952;6.790;2023-03-25T11:53:25;11.90;99.90
58413;DHT22;44209;52.952;6.790;2023-03-25T11:56:00;12.00;99.90
58413;DHT22;44209;52.952;6.790;2023-03-25T11:58:28;12.00;99.90
58413;DHT22;44209;52.952;6.790;2023-03-25T12:01:02;12.00;99.90
58413;DHT22;44209;52.952;6.790;2023-03-25T12:03:31;12.10;99.90
58413;DHT22;44209;52.952;6.790;2023-03-25T12:06:05;12.10;99.90
58413;DHT22;44209;52.952;6.790;2023-03-25T12:08:48;12.00;99.90
58413;DHT22;44209;52.952;6.790;2023-03-25T12:11:25;11.80;99.90
58413;DHT22;44209;52.952;6.790;2023-03-25T12:25:11;11.60;99.90
58413;DHT22;44209;52.952;6.790;2023-03-25T12:28:04;11.50;99.90
58413;DHT22;44209;52.952;6.790;2023-03-25T12:35:42;11.80;99.90
58413;DHT22;44209;52.952;6.790;2023-03-25T12:43:58;12.10;99.90
58413;DHT22;44209;52.952;6.790;2023-03-25T13:02:58;12.00;99.90
58413;DHT22;44209;52.952;6.790;2023-03-25T13:05:36;11.90;99.90
58413;DHT22;44209;52.952;6.790;2023-03-25T13:08:11;11.90;99.90
58413;DHT22;44209;52.952;6.790;2023-03-25T13:10:40;12.00;99.90
58413;DHT22;44209;52.952;6.790;2023-03-25T13:13:14;12.20;99.90
58413;DHT22;44209;52.952;6.790;2023-03-25T13:15:47;12.40;99.90
58413;DHT22;44209;52.952;6.790;2023-03-25T13:18:27;12.50;99.90
58413;DHT22;44209;52.952;6.790;2023-03-25T13:21:02;12.60;99.90
58413;DHT22;44209;52.952;6.790;2023-03-25T13:23:34;12.70;99.90
58413;DHT22;44209;52.952;6.790;2023-03-25T13:26:30;12.70;99.90
58413;DHT22;44209;52.952;6.790;2023-03-25T13:29:05;12.50;99.90
58413;DHT22;44209;52.952;6.790;2023-03-25T13:31:51;12.40;99.90
58413;DHT22;44209;52.952;6.790;2023-03-25T13:34:48;12.40;99.90
58413;DHT22;44209;52.952;6.790;2023-03-25T13:51:25;12.20;99.90
58413;DHT22;44209;52.952;6.790;2023-03-25T14:02:33;12.30;99.90
58413;DHT22;44209;52.952;6.790;2023-03-25T14:13:53;11.90;99.90
58413;DHT22;44209;52.952;6.790;2023-03-25T14:16:29;11.90;99.90
58413;DHT22;44209;52.952;6.790;2023-03-25T14:19:12;11.80;99.90
58413;DHT22;44209;52.952;6.790;2023-03-25T14:21:43;11.70;99.90
58413;DHT22;44209;52.952;6.790;2023-03-25T14:26:58;11.40;99.90
58413;DHT22;44209;52.952;6.790;2023-03-25T14:34:42;10.50;99.90
58413;DHT22;44209;52.952;6.790;2023-03-25T14:37:22;10.00;99.90
58413;DHT22;44209;52.952;6.790;2023-03-25T14:39:53;9.60;99.90
58413;DHT22;44209;52.952;6.790;2023-03-25T14:42:23;9.20;99.90
58413;DHT22;44209;52.952;6.790;2023-03-25T14:44:52;8.90;99.90
58413;DHT22;44209;52.952;6.790;2023-03-25T14:49:51;8.70;99.90
58413;DHT22;44209;52.952;6.790;2023-03-25T14:52:32;8.60;99.90
58413;DHT22;44209;52.952;6.790;2023-03-25T14:55:08;8.70;99.90
58413;DHT22;44209;52.952;6.790;2023-03-25T14:57:40;8.80;99.90
58413;DHT22;44209;52.952;6.790;2023-03-25T15:00:08;8.90;99.90
58413;DHT22;44209;52.952;6.790;2023-03-25T15:02:40;9.00;99.90
58413;DHT22;44209;52.952;6.790;2023-03-25T15:05:25;9.10;99.90
58413;DHT22;44209;52.952;6.790;2023-03-25T15:07:58;9.10;99.90
58413;DHT22;44209;52.952;6.790;2023-03-25T15:10:32;9.10;99.90
58413;DHT22;44209;52.952;6.790;2023-03-25T15:13:05;9.10;99.90
58413;DHT22;44209;52.952;6.790;2023-03-25T15:18:10;9.20;99.90
58413;DHT22;44209;52.952;6.790;2023-03-25T15:20:37;9.30;99.90
58413;DHT22;44209;52.952;6.790;2023-03-25T15:25:52;9.30;99.90
58413;DHT22;44209;52.952;6.790;2023-03-25T15:28:21;9.30;99.90
58413;DHT22;44209;52.952;6.790;2023-03-25T15:36:35;9.30;99.90
58413;DHT22;44209;52.952;6.790;2023-03-25T15:40:22;9.30;99.90
58413;DHT22;44209;52.952;6.790;2023-03-25T15:45:21;9.30;99.90
58413;DHT22;44209;52.952;6.790;2023-03-25T15:51:02;9.50;99.90
58413;DHT22;44209;52.952;6.790;2023-03-25T15:53:53;9.60;99.90
58413;DHT22;44209;52.952;6.790;2023-03-25T15:56:31;9.60;99.90
58413;DHT22;44209;52.952;6.790;2023-03-25T15:59:07;9.50;99.90
58413;DHT22;44209;52.952;6.790;2023-03-25T16:01:40;9.40;99.90
58413;DHT22;44209;52.952;6.790;2023-03-25T16:07:00;9.40;99.90
58413;DHT22;44209;52.952;6.790;2023-03-25T16:09:28;9.30;99.90
58413;DHT22;44209;52.952;6.790;2023-03-25T16:11:58;9.40;99.90
58413;DHT22;44209;52.952;6.790;2023-03-25T16:14:28;9.40;99.90
58413;DHT22;44209;52.952;6.790;2023-03-25T16:16:57;9.40;99.90
58413;DHT22;44209;52.952;6.790;2023-03-25T16:21:53;9.40;99.90
58413;DHT22;44209;52.952;6.790;2023-03-25T16:24:23;9.50;99.90
58413;DHT22;44209;52.952;6.790;2023-03-25T16:26:50;9.40;99.90
58413;DHT22;44209;52.952;6.790;2023-03-25T16:29:21;9.40;99.90
58413;DHT22;44209;52.952;6.790;2023-03-25T16:32:03;9.40;99.90
58413;DHT22;44209;52.952;6.790;2023-03-25T16:34:39;9.40;99.90
58413;DHT22;44209;52.952;6.790;2023-03-25T16:37:17;9.40;99.90
58413;DHT22;44209;52.952;6.790;2023-03-25T16:39:48;9.50;99.90
58413;DHT22;44209;52.952;6.790;2023-03-25T16:42:29;9.50;99.90
58413;DHT22;44209;52.952;6.790;2023-03-25T16:45:01;9.50;99.90
58413;DHT22;44209;52.952;6.790;2023-03-25T16:47:30;9.50;99.90
58413;DHT22;44209;52.952;6.790;2023-03-25T16:49:56;9.50;99.90
58413;DHT22;44209;52.952;6.790;2023-03-25T16:52:30;9.50;99.90
58413;DHT22;44209;52.952;6.790;2023-03-25T16:57:27;9.40;99.90
58413;DHT22;44209;52.952;6.790;2023-03-25T16:59:55;9.40;99.90
58413;DHT22;44209;52.952;6.790;2023-03-25T17:02:29;9.40;99.90
58413;DHT22;44209;52.952;6.790;2023-03-25T17:05:31;9.40;99.90
58413;DHT22;44209;52.952;6.790;2023-03-25T17:08:17;9.30;99.90
58413;DHT22;44209;52.952;6.790;2023-03-25T17:10:50;9.30;99.90
58413;DHT22;44209;52.952;6.790;2023-03-25T17:13:23;9.30;99.90
58413;DHT22;44209;52.952;6.790;2023-03-25T17:15:50;9.30;99.90
58413;DHT22;44209;52.952;6.790;2023-03-25T17:18:18;9.30;99.90
58413;DHT22;44209;52.952;6.790;2023-03-25T17:20:48;9.20;99.90
58413;DHT22;44209;52.952;6.790;2023-03-25T17:23:21;9.20;99.90
58413;DHT22;44209;52.952;6.790;2023-03-25T17:25:58;9.20;99.90
58413;DHT22;44209;52.952;6.790;2023-03-25T17:28:28;9.20;99.90
58413;DHT22;44209;52.952;6.790;2023-03-25T17:30:56;9.10;99.90
58413;DHT22;44209;52.952;6.790;2023-03-25T17:35:53;9.00;99.90
58413;DHT22;44209;52.952;6.790;2023-03-25T17:38:31;9.10;99.90
58413;DHT22;44209;52.952;6.790;2023-03-25T17:40:59;9.10;99.90
58413;DHT22;44209;52.952;6.790;2023-03-25T17:43:28;9.10;99.90
58413;DHT22;44209;52.952;6.790;2023-03-25T17:45:56;9.10;99.90
58413;DHT22;44209;52.952;6.790;2023-03-25T17:48:22;9.10;99.90
58413;DHT22;44209;52.952;6.790;2023-03-25T17:50:53;9.10;99.90
58413;DHT22;44209;52.952;6.790;2023-03-25T17:53:19;9.10;99.90
58413;DHT22;44209;52.952;6.790;2023-03-25T17:55:45;9.10;99.90
58413;DHT22;44209;52.952;6.790;2023-03-25T17:58:13;9.10;99.90
58413;DHT22;44209;52.952;6.790;2023-03-25T18:00:39;9.10;99.90
58413;DHT22;44209;52.952;6.790;2023-03-25T18:03:17;9.10;99.90
58413;DHT22;44209;52.952;6.790;2023-03-25T18:05:44;9.10;99.90
58413;DHT22;44209;52.952;6.790;2023-03-25T18:08:13;9.10;99.90
58413;DHT22;44209;52.952;6.790;2023-03-25T18:10:40;9.10;99.90
58413;DHT22;44209;52.952;6.790;2023-03-25T18:13:07;9.10;99.90
58413;DHT22;44209;52.952;6.790;2023-03-25T18:15:33;9.10;99.90
58413;DHT22;44209;52.952;6.790;2023-03-25T18:17:59;9.10;99.90
58413;DHT22;44209;52.952;6.790;2023-03-25T18:20:28;9.10;99.90
58413;DHT22;44209;52.952;6.790;2023-03-25T18:22:54;9.10;99.90
58413;DHT22;44209;52.952;6.790;2023-03-25T18:25:19;9.00;99.90
58413;DHT22;44209;52.952;6.790;2023-03-25T18:27:54;9.00;99.90
58413;DHT22;44209;52.952;6.790;2023-03-25T18:30:27;9.00;99.90
58413;DHT22;44209;52.952;6.790;2023-03-25T18:32:54;9.00;99.90
58413;DHT22;44209;52.952;6.790;2023-03-25T18:35:20;9.00;99.90
58413;DHT22;44209;52.952;6.790;2023-03-25T18:37:46;9.00;99.90
58413;DHT22;44209;52.952;6.790;2023-03-25T18:40:25;9.00;99.90
58413;DHT22;44209;52.952;6.790;2023-03-25T18:42:53;9.00;99.90
58413;DHT22;44209;52.952;6.790;2023-03-25T18:45:21;8.90;99.90
58413;DHT22;44209;52.952;6.790;2023-03-25T18:47:48;9.00;99.90
58413;DHT22;44209;52.952;6.790;2023-03-25T18:52:47;9.00;99.90
58413;DHT22;44209;52.952;6.790;2023-03-25T18:55:14;8.90;99.90
58413;DHT22;44209;52.952;6.790;2023-03-25T18:57:40;9.00;99.90
58413;DHT22;44209;52.952;6.790;2023-03-25T19:00:28;8.90;99.90
58413;DHT22;44209;52.952;6.790;2023-03-25T19:02:56;8.90;99.90
58413;DHT22;44209;52.952;6.790;2023-03-25T19:05:23;8.90;99.90